Observation data for Reese Center on 05/25/2019      Previous  Date  Next       Current Mesonet Observations  Soil Data  Daily Summary Page  Observations in Plain Language
KREE 250500Z 10008KT 18/16 A2999 RMK A01 T01790157  RH  089%=      5-min Rain = 0
KREE 250505Z 09009KT 18/16 A2999 RMK A01 T01800158  RH  089%=      5-min Rain = 0
KREE 250510Z 09008KT 18/16 A2999 RMK A01 T01800159  RH  090%=      5-min Rain = 0
KREE 250515Z 09008KT 18/16 A2999 RMK A01 T01800160  RH  090%=      5-min Rain = 0
KREE 250520Z 09009KT 18/16 A2999 RMK A01 T01810161  RH  090%=      5-min Rain = 0
KREE 250525Z 10009KT 18/16 A2999 RMK A01 T01820161  RH  089%=      5-min Rain = 0
KREE 250530Z 10009KT 18/16 A2999 RMK A01 T01830161  RH  089%=      5-min Rain = 0
KREE 250535Z 10009KT 18/16 A2999 RMK A01 T01820161  RH  089%=      5-min Rain = 0
KREE 250540Z 10009KT 18/16 A2998 RMK A01 T01820161  RH  090%=      5-min Rain = 0
KREE 250545Z 10010KT 18/16 A2998 RMK A01 T01820162  RH  090%=      5-min Rain = 0
KREE 250550Z 11010KT 18/16 A2998 RMK A01 T01820162  RH  090%=      5-min Rain = 0
KREE 250555Z 11010KT 18/16 A2998 RMK A01 T01810162  RH  091%=      5-min Rain = 0
KREE 250600Z 11009KT 18/16 A2998 RMK A01 T01800161  RH  091%=      5-min Rain = 0
KREE 250605Z 11009KT 18/16 A2998 RMK A01 T01780161  RH  092%=      5-min Rain = 0
KREE 250610Z 11009KT 18/16 A2998 RMK A01 T01770161  RH  092%=      5-min Rain = 0
KREE 250615Z 11009KT 18/16 A2998 RMK A01 T01760161  RH  093%=      5-min Rain = 0
KREE 250620Z 11008KT 18/16 A2998 RMK A01 T01750161  RH  093%=      5-min Rain = 0
KREE 250625Z 10007KT 17/16 A2998 RMK A01 T01740160  RH  094%=      5-min Rain = 0
KREE 250630Z 10006KT 17/16 A2998 RMK A01 T01740161  RH  094%=      5-min Rain = 0
KREE 250635Z 09007KT 17/16 A2998 RMK A01 T01730160  RH  094%=      5-min Rain = 0
KREE 250640Z 09007KT 17/16 A2997 RMK A01 T01720160  RH  095%=      5-min Rain = 0
KREE 250645Z 09007KT 17/16 A2997 RMK A01 T01720160  RH  095%=      5-min Rain = 0
KREE 250650Z 09008KT 17/16 A2997 RMK A01 T01720161  RH  095%=      5-min Rain = 0
KREE 250655Z 10008KT 17/16 A2997 RMK A01 T01730162  RH  095%=      5-min Rain = 0
KREE 250700Z 10008KT 17/16 A2997 RMK A01 T01730162  RH  095%=      5-min Rain = 0
KREE 250705Z 10008KT 17/16 A2997 RMK A01 T01740164  RH  096%=      5-min Rain = 0
KREE 250710Z 10008KT 18/17 A2997 RMK A01 T01760165  RH  096%=      5-min Rain = 0
KREE 250715Z 10009KT 18/17 A2997 RMK A01 T01760165  RH  096%=      5-min Rain = 0
KREE 250720Z 10009KT 18/17 A2997 RMK A01 T01770166  RH  096%=      5-min Rain = 0
KREE 250725Z 10008KT 18/17 A2997 RMK A01 T01780167  RH  095%=      5-min Rain = 0
KREE 250730Z 10010KT 18/17 A2996 RMK A01 T01780167  RH  095%=      5-min Rain = 0
KREE 250735Z 10009KT 18/17 A2996 RMK A01 T01780167  RH  095%=      5-min Rain = 0
KREE 250740Z 10010KT 18/17 A2996 RMK A01 T01780167  RH  095%=      5-min Rain = 0
KREE 250745Z 10010KT 18/17 A2996 RMK A01 T01790167  RH  095%=      5-min Rain = 0
KREE 250750Z 10010KT 18/17 A2996 RMK A01 T01790167  RH  095%=      5-min Rain = 0
KREE 250755Z 10010KT 18/17 A2996 RMK A01 T01790167  RH  095%=      5-min Rain = 0
KREE 250800Z 10010KT 18/17 A2996 RMK A01 T01800167  RH  095%=      5-min Rain = 0
KREE 250805Z 10011KT 18/17 A2996 RMK A01 T01800167  RH  095%=      5-min Rain = 0
KREE 250810Z 11012KT 18/17 A2996 RMK A01 T01800167  RH  095%=      5-min Rain = 0
KREE 250815Z 11011KT 18/17 A2996 RMK A01 T01800167  RH  094%=      5-min Rain = 0
KREE 250820Z 11011KT 18/17 A2996 RMK A01 T01800167  RH  094%=      5-min Rain = 0
KREE 250825Z 11010KT 18/17 A2996 RMK A01 T01800167  RH  094%=      5-min Rain = 0
KREE 250830Z 11009KT 18/17 A2996 RMK A01 T01800168  RH  095%=      5-min Rain = 0
KREE 250835Z 11008KT 18/17 A2996 RMK A01 T01800168  RH  095%=      5-min Rain = 0
KREE 250840Z 12009KT 18/17 A2995 RMK A01 T01810168  RH  095%=      5-min Rain = 0
KREE 250845Z 12009KT 18/17 A2995 RMK A01 T01820169  RH  094%=      5-min Rain = 0
KREE 250850Z 12010KT 18/17 A2995 RMK A01 T01820169  RH  094%=      5-min Rain = 0
KREE 250855Z 12011KT 18/17 A2995 RMK A01 T01820169  RH  094%=      5-min Rain = 0
KREE 250900Z 12010KT 18/17 A2995 RMK A01 T01820169  RH  094%=      5-min Rain = 0
KREE 250905Z 12010KT 18/17 A2995 RMK A01 T01820169  RH  094%=      5-min Rain = 0
KREE 250910Z 12011KT 18/17 A2995 RMK A01 T01820170  RH  094%=      5-min Rain = 0
KREE 250915Z 12011KT 18/17 A2995 RMK A01 T01820170  RH  095%=      5-min Rain = 0
KREE 250920Z 12011KT 18/17 A2995 RMK A01 T01830170  RH  095%=      5-min Rain = 0
KREE 250925Z 12010KT 18/17 A2995 RMK A01 T01830171  RH  095%=      5-min Rain = 0
KREE 250930Z 12010KT 18/17 A2995 RMK A01 T01830171  RH  095%=      5-min Rain = 0
KREE 250935Z 12010KT 18/17 A2995 RMK A01 T01840171  RH  095%=      5-min Rain = 0
KREE 250940Z 13011KT 18/17 A2995 RMK A01 T01840171  RH  095%=      5-min Rain = 0
KREE 250945Z 12010KT 18/17 A2995 RMK A01 T01840172  RH  095%=      5-min Rain = 0
KREE 250950Z 12011KT 18/17 A2995 RMK A01 T01840172  RH  095%=      5-min Rain = 0
KREE 250955Z 12011KT 18/17 A2995 RMK A01 T01840172  RH  095%=      5-min Rain = 0
KREE 251000Z 12011KT 19/17 A2996 RMK A01 T01850172  RH  095%=      5-min Rain = 0
KREE 251005Z 12010KT 19/17 A2996 RMK A01 T01850173  RH  095%=      5-min Rain = 0
KREE 251010Z 13011KT 19/17 A2996 RMK A01 T01860173  RH  095%=      5-min Rain = 0
KREE 251015Z 13011KT 19/17 A2996 RMK A01 T01860174  RH  095%=      5-min Rain = 0
KREE 251020Z 12010KT 19/17 A2996 RMK A01 T01860173  RH  095%=      5-min Rain = 0
KREE 251025Z 13011KT 19/17 A2996 RMK A01 T01860173  RH  095%=      5-min Rain = 0
KREE 251030Z 12009KT 19/17 A2996 RMK A01 T01860174  RH  095%=      5-min Rain = 0
KREE 251035Z 12009KT 19/17 A2996 RMK A01 T01860174  RH  095%=      5-min Rain = 0
KREE 251040Z 13009KT 19/17 A2997 RMK A01 T01860174  RH  095%=      5-min Rain = 0
KREE 251045Z 13009KT 19/18 A2997 RMK A01 T01860175  RH  095%=      5-min Rain = 0
KREE 251050Z 13010KT 19/18 A2997 RMK A01 T01870175  RH  095%=      5-min Rain = 0
KREE 251055Z 12010KT 19/18 A2997 RMK A01 T01870175  RH  095%=      5-min Rain = 0
KREE 251100Z 13009KT 19/18 A2997 RMK A01 T01870175  RH  095%=      5-min Rain = 0
KREE 251105Z 12010KT 19/18 A2997 RMK A01 T01870176  RH  095%=      5-min Rain = 0
KREE 251110Z 13009KT 19/18 A2997 RMK A01 T01870176  RH  095%=      5-min Rain = 0
KREE 251115Z 13009KT 19/18 A2997 RMK A01 T01870176  RH  096%=      5-min Rain = 0
KREE 251120Z 13009KT 19/18 A2998 RMK A01 T01880177  RH  096%=      5-min Rain = 0
KREE 251125Z 13009KT 19/18 A2998 RMK A01 T01880177  RH  096%=      5-min Rain = 0
KREE 251130Z 13009KT 19/18 A2998 RMK A01 T01880177  RH  096%=      5-min Rain = 0
KREE 251135Z 13008KT 19/18 A2998 RMK A01 T01880177  RH  096%=      5-min Rain = 0
KREE 251140Z 13009KT 19/18 A2998 RMK A01 T01880177  RH  096%=      5-min Rain = 0
KREE 251145Z 13009KT 19/18 A2998 RMK A01 T01890178  RH  096%=      5-min Rain = 0
KREE 251150Z 13010KT 19/18 A2998 RMK A01 T01890178  RH  095%=      5-min Rain = 0
KREE 251155Z 13009KT 19/18 A2999 RMK A01 T01900178  RH  095%=      5-min Rain = 0
KREE 251200Z 13009KT 19/18 A2998 RMK A01 T01900178  RH  095%=      5-min Rain = 0
KREE 251205Z 13009KT 19/18 A2999 RMK A01 T01900178  RH  095%=      5-min Rain = 0
KREE 251210Z 13009KT 19/18 A2999 RMK A01 T01900178  RH  095%=      5-min Rain = 0
KREE 251215Z 14008KT 19/18 A2999 RMK A01 T01900178  RH  095%=      5-min Rain = 0
KREE 251220Z 14009KT 19/18 A2999 RMK A01 T01910179  RH  095%=      5-min Rain = 0
KREE 251225Z 13010KT 19/18 A2999 RMK A01 T01910179  RH  095%=      5-min Rain = 0
KREE 251230Z 13011KT 19/18 A30 RMK A01 T01920180  RH  095%=      5-min Rain = 0
KREE 251235Z 14010KT 19/18 A30 RMK A01 T01930181  RH  095%=      5-min Rain = 0
KREE 251240Z 14010KT 19/18 A30 RMK A01 T01940181  RH  095%=      5-min Rain = 0
KREE 251245Z 14011KT 20/18 A30 RMK A01 T01950182  RH  095%=      5-min Rain = 0
KREE 251250Z 14012KT 20/18 A30 RMK A01 T01950182  RH  094%=      5-min Rain = 0
KREE 251255Z 14012KT 20/18 A30 RMK A01 T01960182  RH  094%=      5-min Rain = 0
KREE 251300Z 14012KT 20/18 A30 RMK A01 T01970183  RH  094%=      5-min Rain = 0
KREE 251305Z 14013KT 20/18 A30 RMK A01 T01980183  RH  094%=      5-min Rain = 0
KREE 251310Z 14013G18KT 20/18 A30 RMK A01 T01980184  RH  094%=      5-min Rain = 0
KREE 251315Z 14012KT 20/18 A30 RMK A01 T01990184  RH  093%=      5-min Rain = 0
KREE 251320Z 14014KT 20/18 A30 RMK A01 T01990184  RH  093%=      5-min Rain = 0
KREE 251325Z 15012KT 20/18 A3001 RMK A01 T01990184  RH  093%=      5-min Rain = 0
KREE 251330Z 15013KT 20/19 A3001 RMK A01 T02000185  RH  093%=      5-min Rain = 0
KREE 251335Z 15013KT 20/19 A3001 RMK A01 T02000185  RH  093%=      5-min Rain = 0
KREE 251340Z 15011KT 20/19 A3001 RMK A01 T02000185  RH  093%=      5-min Rain = 0
KREE 251345Z 15011G16KT 20/19 A3001 RMK A01 T02000185  RH  093%=      5-min Rain = 0
KREE 251350Z 15011KT 20/19 A3001 RMK A01 T02000185  RH  094%=      5-min Rain = 0
KREE 251355Z 15013KT 20/19 A3002 RMK A01 T01990185  RH  094%=      5-min Rain = 0
KREE 251400Z 14011KT 20/19 A3002 RMK A01 T02000186  RH  094%=      5-min Rain = 0
KREE 251405Z 14012KT 20/19 A3002 RMK A01 T01990186  RH  094%=      5-min Rain = 0
KREE 251410Z 15012KT 20/19 A3002 RMK A01 T01990185  RH  094%=      5-min Rain = 0
KREE 251415Z 15013KT 20/19 A3002 RMK A01 T01990186  RH  094%=      5-min Rain = 0
KREE 251420Z 14013KT 20/19 A3002 RMK A01 T01990186  RH  095%=      5-min Rain = 0
KREE 251425Z 15012KT 20/19 A3002 RMK A01 T01990186  RH  095%=      5-min Rain = 0
KREE 251430Z 15012KT 20/19 A3002 RMK A01 T01990186  RH  095%=      5-min Rain = 0
KREE 251435Z 14013KT 20/19 A3002 RMK A01 T01990186  RH  095%=      5-min Rain = 0
KREE 251440Z 14012KT 20/19 A3002 RMK A01 T01990186  RH  095%=      5-min Rain = 0
KREE 251445Z 14013KT 20/19 A3002 RMK A01 T01990187  RH  095%=      5-min Rain = 0
KREE 251450Z 14011KT 20/19 A3002 RMK A01 T02000187  RH  095%=      5-min Rain = 0
KREE 251455Z 14011KT 20/19 A3002 RMK A01 T02000188  RH  095%=      5-min Rain = 0
KREE 251500Z 14013KT 20/19 A3002 RMK A01 T02000188  RH  095%=      5-min Rain = 0
KREE 251505Z 14011KT 20/19 A3002 RMK A01 T02010188  RH  095%=      5-min Rain = 0
KREE 251510Z 14013KT 20/19 A3001 RMK A01 T02010188  RH  095%=      5-min Rain = 0
KREE 251515Z 14013G18KT 20/19 A3001 RMK A01 T02010189  RH  095%=      5-min Rain = 0
KREE 251520Z 15013KT 20/19 A3001 RMK A01 T02010189  RH  095%=      5-min Rain = 0
KREE 251525Z 14012KT 20/19 A3001 RMK A01 T02010189  RH  095%=      5-min Rain = 0
KREE 251530Z 14013KT 20/19 A3001 RMK A01 T02020190  RH  095%=      5-min Rain = 0
KREE 251535Z 15012KT 20/19 A3001 RMK A01 T02030190  RH  095%=      5-min Rain = 0
KREE 251540Z 15012G17KT 21/19 A3001 RMK A01 T02050191  RH  094%=      5-min Rain = 0
KREE 251545Z 15014KT 21/19 A3002 RMK A01 T02050191  RH  094%=      5-min Rain = 0
KREE 251550Z 15013KT 21/19 A3002 RMK A01 T02060191  RH  094%=      5-min Rain = 0
KREE 251555Z 15016KT 20/19 A3002 RMK A01 T02040190  RH  094%=      5-min Rain = 0
KREE 251600Z 15015KT 20/19 A3002 RMK A01 T02040190  RH  094%=      5-min Rain = 0
KREE 251605Z 16014KT 20/19 A3002 RMK A01 T02040190  RH  094%=      5-min Rain = 0
KREE 251610Z 15014KT 21/19 A3002 RMK A01 T02050191  RH  094%=      5-min Rain = 0
KREE 251615Z 16015KT 21/19 A3002 RMK A01 T02050191  RH  094%=      5-min Rain = 0
KREE 251620Z 16016KT 21/19 A3002 RMK A01 T02050191  RH  094%=      5-min Rain = 0
KREE 251625Z 16015KT 21/19 A3002 RMK A01 T02070191  RH  093%=      5-min Rain = 0
KREE 251630Z 16015KT 21/19 A3002 RMK A01 T02070190  RH  093%=      5-min Rain = 0
KREE 251635Z 16012KT 21/19 A3002 RMK A01 T02070191  RH  093%=      5-min Rain = 0
KREE 251640Z 15013KT 21/19 A3002 RMK A01 T02070191  RH  093%=      5-min Rain = 0
KREE 251645Z 15013KT 21/19 A3002 RMK A01 T02070191  RH  093%=      5-min Rain = 0
KREE 251650Z 16013KT 21/19 A3002 RMK A01 T02070191  RH  093%=      5-min Rain = 0
KREE 251655Z 15013KT 21/19 A3002 RMK A01 T02060191  RH  093%=      5-min Rain = 0
KREE 251700Z 15013KT 21/19 A3002 RMK A01 T02060192  RH  094%=      5-min Rain = 0
KREE 251705Z 15013KT 21/19 A3002 RMK A01 T02060192  RH  094%=      5-min Rain = 0
KREE 251710Z 15013KT 21/19 A3002 RMK A01 T02060192  RH  094%=      5-min Rain = 0
KREE 251715Z 15012KT 21/19 A3002 RMK A01 T02060193  RH  094%=      5-min Rain = 0
KREE 251720Z 14012KT 21/19 A3002 RMK A01 T02060192  RH  094%=      5-min Rain = 0
KREE 251725Z 14014KT 21/19 A3002 RMK A01 T02070193  RH  094%=      5-min Rain = 0
KREE 251730Z 14013KT 21/19 A3002 RMK A01 T02070193  RH  094%=      5-min Rain = 0
KREE 251735Z 14013KT 21/20 A3002 RMK A01 T02100195  RH  094%=      5-min Rain = 0
KREE 251740Z 14013KT 21/20 A3001 RMK A01 T02140196  RH  092%=      5-min Rain = 0
KREE 251745Z 14013G18KT 22/20 A3001 RMK A01 T02190197  RH  090%=      5-min Rain = 0
KREE 251750Z 14014KT 22/20 A3001 RMK A01 T02170195  RH  090%=      5-min Rain = 0
KREE 251755Z 13014KT 22/20 A3001 RMK A01 T02160196  RH  091%=      5-min Rain = 0
KREE 251800Z 13013KT 21/19 A3001 RMK A01 T02140194  RH  091%=      5-min Rain = 0
KREE 251805Z 13014KT 21/19 A30 RMK A01 T02130194  RH  091%=      5-min Rain = 0
KREE 251810Z 13013KT 21/19 A30 RMK A01 T02130194  RH  091%=      5-min Rain = 0
KREE 251815Z 13013KT 21/19 A30 RMK A01 T02120194  RH  091%=      5-min Rain = 0
KREE 251820Z 13012KT 21/19 A30 RMK A01 T02130194  RH  092%=      5-min Rain = 0
KREE 251825Z 13013KT 21/19 A2999 RMK A01 T02130194  RH  091%=      5-min Rain = 0
KREE 251830Z 13014KT 21/19 A2999 RMK A01 T02130193  RH  091%=      5-min Rain = 0
KREE 251835Z 13012G18KT 21/19 A2999 RMK A01 T02130194  RH  091%=      5-min Rain = 0
KREE 251840Z 12013KT 21/19 A2998 RMK A01 T02120194  RH  091%=      5-min Rain = 0
KREE 251845Z 13013KT 21/19 A2999 RMK A01 T02130194  RH  091%=      5-min Rain = 0
KREE 251850Z 13015KT 21/19 A2998 RMK A01 T02140194  RH  091%=      5-min Rain = 0
KREE 251855Z 13017KT 21/19 A2997 RMK A01 T02140194  RH  091%=      5-min Rain = 0
KREE 251900Z 14015KT 22/20 A2996 RMK A01 T02170196  RH  091%=      5-min Rain = 0
KREE 251905Z 14017KT 22/20 A2996 RMK A01 T02180196  RH  090%=      5-min Rain = 0
KREE 251910Z 14016KT 22/20 A2997 RMK A01 T02180196  RH  090%=      5-min Rain = 0
KREE 251915Z 14016G23KT 22/20 A2996 RMK A01 T02180198  RH  091%=      5-min Rain = 0
KREE 251920Z 14017G24KT 22/20 A2996 RMK A01 T02240201  RH  089%=      5-min Rain = 0
KREE 251925Z 14018G23KT 22/20 A2996 RMK A01 T02240199  RH  088%=      5-min Rain = 0
KREE 251930Z 15019KT 23/20 A2996 RMK A01 T02290201  RH  087%=      5-min Rain = 0
KREE 251935Z 15020KT 23/20 A2995 RMK A01 T02320200  RH  085%=      5-min Rain = 0
KREE 251940Z 15017G23KT 24/20 A2995 RMK A01 T02360202  RH  084%=      5-min Rain = 0
KREE 251945Z 15017G24KT 24/20 A2995 RMK A01 T02360201  RH  083%=      5-min Rain = 0
KREE 251950Z 15017KT 24/20 A2995 RMK A01 T02390202  RH  082%=      5-min Rain = 0
KREE 251955Z 14016G23KT 24/20 A2995 RMK A01 T02410202  RH  081%=      5-min Rain = 0
KREE 252000Z 14014KT 24/20 A2995 RMK A01 T02410202  RH  081%=      5-min Rain = 0
KREE 252005Z 15013G18KT 25/20 A2995 RMK A01 T02460204  RH  079%=      5-min Rain = 0
KREE 252010Z 15017G23KT 25/20 A2994 RMK A01 T02530204  RH  077%=      5-min Rain = 0
KREE 252015Z 14018G23KT 25/20 A2994 RMK A01 T02520203  RH  076%=      5-min Rain = 0
KREE 252020Z 15016KT 25/20 A2994 RMK A01 T02510202  RH  077%=      5-min Rain = 0
KREE 252025Z 15017G22KT 25/20 A2994 RMK A01 T02530203  RH  076%=      5-min Rain = 0
KREE 252030Z 15017G22KT 26/21 A2994 RMK A01 T02560205  RH  075%=      5-min Rain = 0
KREE 252035Z 15017KT 26/20 A2993 RMK A01 T02570204  RH  074%=      5-min Rain = 0
KREE 252040Z 15017G23KT 26/20 A2994 RMK A01 T02570201  RH  073%=      5-min Rain = 0
KREE 252045Z 16019G24KT 26/20 A2994 RMK A01 T02630204  RH  072%=      5-min Rain = 0
KREE 252050Z 15019G25KT 26/20 A2994 RMK A01 T02640203  RH  071%=      5-min Rain = 0
KREE 252055Z 15020KT 26/20 A2994 RMK A01 T02550199  RH  073%=      5-min Rain = 0
KREE 252100Z 15018G23KT 26/20 A2993 RMK A01 T02560202  RH  074%=      5-min Rain = 0
KREE 252105Z 15019G25KT 26/20 A2992 RMK A01 T02570201  RH  073%=      5-min Rain = 0
KREE 252110Z 16021G26KT 26/20 A2992 RMK A01 T02630201  RH  071%=      5-min Rain = 0
KREE 252115Z 16022G27KT 27/20 A2991 RMK A01 T02650200  RH  069%=      5-min Rain = 0
KREE 252120Z 15025G31KT 27/20 A299 RMK A01 T02650200  RH  069%=      5-min Rain = 0
KREE 252125Z 15023G29KT 26/20 A299 RMK A01 T02640199  RH  069%=      5-min Rain = 0
KREE 252130Z 16025G31KT 27/20 A299 RMK A01 T02650197  RH  068%=      5-min Rain = 0
KREE 252135Z 15026G31KT 27/20 A2989 RMK A01 T02710198  RH  066%=      5-min Rain = 0
KREE 252140Z 15024G29KT 27/20 A299 RMK A01 T02740200  RH  066%=      5-min Rain = 0
KREE 252145Z 15024KT 28/20 A2989 RMK A01 T02750197  RH  064%=      5-min Rain = 0
KREE 252150Z 16023G29KT 28/20 A2989 RMK A01 T02770198  RH  064%=      5-min Rain = 0
KREE 252155Z 15025G32KT 27/20 A2989 RMK A01 T02720195  RH  064%=      5-min Rain = 0
KREE 252200Z 16024G29KT 27/19 A2988 RMK A01 T02690193  RH  065%=      5-min Rain = 0
KREE 252205Z 16024G30KT 26/19 A2988 RMK A01 T02630191  RH  066%=      5-min Rain = 0
KREE 252210Z 16022G27KT 26/19 A2988 RMK A01 T02590192  RH  068%=      5-min Rain = 0.01
KREE 252215Z 16024G31KT 26/19 A2988 RMK A01 T02570189  RH  068%=      5-min Rain = 0
KREE 252220Z 16021G26KT 25/19 A2988 RMK A01 T02540189  RH  069%=      5-min Rain = 0
KREE 252225Z 16022G28KT 25/19 A2988 RMK A01 T02520188  RH  070%=      5-min Rain = 0
KREE 252230Z 16025G32KT 25/19 A2988 RMK A01 T02500187  RH  069%=      5-min Rain = 0
KREE 252235Z 15024G37KT 25/19 A2986 RMK A01 T02490186  RH  070%=      5-min Rain = 0
KREE 252240Z 15019G30KT 25/18 A2985 RMK A01 T02470184  RH  070%=      5-min Rain = 0
KREE 252245Z 18016G26KT 25/18 A2985 RMK A01 T02480177  RH  066%=      5-min Rain = 0
KREE 252250Z 19012G24KT 25/17 A2987 RMK A01 T02470173  RH  065%=      5-min Rain = 0
KREE 252255Z 17023G29KT 25/18 A2987 RMK A01 T02470181  RH  069%=      5-min Rain = 0
KREE 252300Z 17026G33KT 25/19 A2988 RMK A01 T02450187  RH  072%=      5-min Rain = 0
KREE 252305Z 17026G32KT 25/19 A299 RMK A01 T02460187  RH  072%=      5-min Rain = 0
KREE 252310Z 17024G33KT 25/19 A299 RMK A01 T02490188  RH  071%=      5-min Rain = 0
KREE 252315Z 17025G33KT 26/19 A2991 RMK A01 T02560190  RH  069%=      5-min Rain = 0
KREE 252320Z 17025G30KT 26/19 A2992 RMK A01 T02550189  RH  069%=      5-min Rain = 0
KREE 252325Z 17026G31KT 26/19 A2993 RMK A01 T02570188  RH  067%=      5-min Rain = 0
KREE 252330Z 17022G29KT 26/19 A2993 RMK A01 T02620190  RH  066%=      5-min Rain = 0
KREE 252335Z 17020G27KT 26/19 A2993 RMK A01 T02640192  RH  066%=      5-min Rain = 0
KREE 252340Z 17018KT 26/19 A2993 RMK A01 T02640193  RH  067%=      5-min Rain = 0
KREE 252345Z 16019G24KT 26/19 A2993 RMK A01 T02640192  RH  066%=      5-min Rain = 0
KREE 252350Z 17018G25KT 26/19 A2992 RMK A01 T02640192  RH  066%=      5-min Rain = 0
KREE 252355Z 17019KT 26/19 A2992 RMK A01 T02640190  RH  065%=      5-min Rain = 0
KREE 260000Z 17016KT 26/19 A2992 RMK A01 T02600190  RH  067%=      5-min Rain = 0
KREE 260005Z 16019G25KT 26/19 A2992 RMK A01 T02620190  RH  066%=      5-min Rain = 0
KREE 260010Z 16019G28KT 26/19 A2992 RMK A01 T02620190  RH  066%=      5-min Rain = 0
KREE 260015Z 17021G26KT 26/19 A2992 RMK A01 T02610186  RH  065%=      5-min Rain = 0
KREE 260020Z 17019KT 26/19 A2992 RMK A01 T02590186  RH  066%=      5-min Rain = 0
KREE 260025Z 16019G24KT 26/19 A2992 RMK A01 T02580185  RH  066%=      5-min Rain = 0
KREE 260030Z 16020KT 26/18 A2991 RMK A01 T02570184  RH  066%=      5-min Rain = 0
KREE 260035Z 16020KT 26/19 A2991 RMK A01 T02560185  RH  067%=      5-min Rain = 0
KREE 260040Z 16019G24KT 26/19 A2991 RMK A01 T02550185  RH  067%=      5-min Rain = 0
KREE 260045Z 16019G24KT 26/19 A2992 RMK A01 T02550185  RH  067%=      5-min Rain = 0
KREE 260050Z 16017G22KT 25/19 A2992 RMK A01 T02530185  RH  068%=      5-min Rain = 0
KREE 260055Z 16016KT 25/19 A2992 RMK A01 T02520186  RH  069%=      5-min Rain = 0
KREE 260100Z 16014KT 25/19 A2992 RMK A01 T02510186  RH  069%=      5-min Rain = 0
KREE 260105Z 16013G19KT 25/19 A2993 RMK A01 T02490187  RH  070%=      5-min Rain = 0
KREE 260110Z 15014KT 25/19 A2993 RMK A01 T02480186  RH  070%=      5-min Rain = 0
KREE 260115Z 15012KT 25/19 A2993 RMK A01 T02460188  RH  072%=      5-min Rain = 0
KREE 260120Z 15014KT 24/19 A2994 RMK A01 T02440186  RH  072%=      5-min Rain = 0
KREE 260125Z 15014G19KT 24/19 A2994 RMK A01 T02430185  RH  072%=      5-min Rain = 0
KREE 260130Z 16014G19KT 24/19 A2994 RMK A01 T02420185  RH  072%=      5-min Rain = 0
KREE 260135Z 15014KT 24/19 A2994 RMK A01 T02400185  RH  073%=      5-min Rain = 0
KREE 260140Z 15012KT 24/19 A2994 RMK A01 T02380185  RH  074%=      5-min Rain = 0
KREE 260145Z 15011KT 24/18 A2994 RMK A01 T02350184  RH  075%=      5-min Rain = 0
KREE 260150Z 15012KT 24/18 A2994 RMK A01 T02350183  RH  074%=      5-min Rain = 0
KREE 260155Z 15013KT 24/18 A2994 RMK A01 T02350183  RH  074%=      5-min Rain = 0
KREE 260200Z 15013KT 23/18 A2994 RMK A01 T02340182  RH  075%=      5-min Rain = 0
KREE 260205Z 15012KT 23/18 A2994 RMK A01 T02320182  RH  075%=      5-min Rain = 0
KREE 260210Z 15012KT 23/18 A2994 RMK A01 T02310182  RH  076%=      5-min Rain = 0
KREE 260215Z 15013KT 23/18 A2994 RMK A01 T02290182  RH  077%=      5-min Rain = 0
KREE 260220Z 15013KT 23/18 A2995 RMK A01 T02290182  RH  077%=      5-min Rain = 0
KREE 260225Z 15015KT 23/18 A2994 RMK A01 T02280182  RH  077%=      5-min Rain = 0
KREE 260230Z 15014G19KT 23/18 A2994 RMK A01 T02280182  RH  077%=      5-min Rain = 0
KREE 260235Z 15016KT 23/18 A2994 RMK A01 T02270182  RH  077%=      5-min Rain = 0
KREE 260240Z 15017G22KT 23/18 A2994 RMK A01 T02270182  RH  077%=      5-min Rain = 0
KREE 260245Z 15017KT 23/18 A2994 RMK A01 T02270181  RH  077%=      5-min Rain = 0
KREE 260250Z 15015G20KT 23/18 A2994 RMK A01 T02260181  RH  078%=      5-min Rain = 0
KREE 260255Z 15016G21KT 23/18 A2994 RMK A01 T02250181  RH  078%=      5-min Rain = 0
KREE 260300Z 15016KT 23/18 A2994 RMK A01 T02250181  RH  078%=      5-min Rain = 0
KREE 260305Z 15017KT 22/18 A2994 RMK A01 T02240181  RH  078%=      5-min Rain = 0
KREE 260310Z 15016G22KT 22/18 A2994 RMK A01 T02240181  RH  078%=      5-min Rain = 0
KREE 260315Z 15016G21KT 22/18 A2994 RMK A01 T02230181  RH  079%=      5-min Rain = 0
KREE 260320Z 15016KT 22/18 A2994 RMK A01 T02230181  RH  079%=      5-min Rain = 0
KREE 260325Z 16015KT 22/18 A2994 RMK A01 T02210181  RH  080%=      5-min Rain = 0
KREE 260330Z 16014KT 22/18 A2995 RMK A01 T02190181  RH  081%=      5-min Rain = 0
KREE 260335Z 15014KT 22/18 A2995 RMK A01 T02190181  RH  081%=      5-min Rain = 0
KREE 260340Z 15013KT 22/18 A2995 RMK A01 T02180181  RH  081%=      5-min Rain = 0
KREE 260345Z 16013G18KT 22/18 A2995 RMK A01 T02170181  RH  082%=      5-min Rain = 0
KREE 260350Z 16013KT 22/18 A2995 RMK A01 T02160181  RH  082%=      5-min Rain = 0
KREE 260355Z 16013KT 22/18 A2995 RMK A01 T02150181  RH  083%=      5-min Rain = 0
KREE 260400Z 16012KT 21/18 A2996 RMK A01 T02140181  RH  084%=      5-min Rain = 0
KREE 260405Z 16012KT 21/18 A2996 RMK A01 T02130181  RH  084%=      5-min Rain = 0
KREE 260410Z 16011KT 21/18 A2996 RMK A01 T02110181  RH  085%=      5-min Rain = 0
KREE 260415Z 16011KT 21/18 A2996 RMK A01 T02090181  RH  086%=      5-min Rain = 0
KREE 260420Z 16012KT 21/18 A2996 RMK A01 T02100181  RH  086%=      5-min Rain = 0
KREE 260425Z 16012KT 21/18 A2996 RMK A01 T02100181  RH  085%=      5-min Rain = 0
KREE 260430Z 16012KT 21/18 A2996 RMK A01 T02090180  RH  086%=      5-min Rain = 0
KREE 260435Z 17012KT 21/18 A2996 RMK A01 T02080179  RH  086%=      5-min Rain = 0
KREE 260440Z 17012KT 21/18 A2996 RMK A01 T02070179  RH  086%=      5-min Rain = 0
KREE 260445Z 17012KT 21/18 A2996 RMK A01 T02060178  RH  086%=      5-min Rain = 0
KREE 260450Z 17012KT 21/18 A2996 RMK A01 T02060177  RH  086%=      5-min Rain = 0
KREE 260455Z 17011KT 20/18 A2996 RMK A01 T02040177  RH  087%=      5-min Rain = 0

Page generated in 0.009 seconds.